createdAt,value
2019-05-20T00:00:48.210Z,11.00
2019-05-20T00:03:20.981Z,10.90
2019-05-20T00:05:53.769Z,10.90
2019-05-20T00:08:26.576Z,10.90
2019-05-20T00:10:59.402Z,10.80
2019-05-20T00:13:32.138Z,10.80
2019-05-20T00:16:04.879Z,10.80
2019-05-20T00:18:37.607Z,10.70
2019-05-20T00:21:10.530Z,10.70
2019-05-20T00:23:43.236Z,10.80
2019-05-20T00:26:17.202Z,10.90
2019-05-20T00:28:49.997Z,10.90
2019-05-20T00:31:23.778Z,11.00
2019-05-20T00:33:56.462Z,11.10
2019-05-20T00:36:29.184Z,11.10
2019-05-20T00:39:19.348Z,11.20
2019-05-20T00:41:53.153Z,11.20
2019-05-20T00:44:25.887Z,11.30
2019-05-20T00:46:58.585Z,11.30
2019-05-20T00:49:31.256Z,11.40
2019-05-20T00:52:04.021Z,11.40
2019-05-20T00:54:36.979Z,11.30
2019-05-20T00:57:09.824Z,11.30
2019-05-20T00:59:42.549Z,11.40
2019-05-20T01:02:15.224Z,11.50
2019-05-20T01:04:47.840Z,11.50
2019-05-20T01:07:20.619Z,11.60
2019-05-20T01:09:54.550Z,11.60
2019-05-20T01:12:27.232Z,11.60
2019-05-20T01:14:59.861Z,11.70
2019-05-20T01:17:32.615Z,11.80
2019-05-20T01:20:05.349Z,11.80
2019-05-20T01:22:38.244Z,11.90
2019-05-20T01:25:12.289Z,11.90
2019-05-20T01:27:44.946Z,12.00
2019-05-20T01:30:19.164Z,12.00
2019-05-20T01:32:51.853Z,12.00
2019-05-20T01:35:24.488Z,12.10
2019-05-20T01:37:57.324Z,12.10
2019-05-20T01:40:29.967Z,12.10
2019-05-20T01:43:02.728Z,12.10
2019-05-20T01:45:35.776Z,12.10
2019-05-20T01:48:09.722Z,12.20
2019-05-20T01:50:43.575Z,12.30
2019-05-20T01:53:16.273Z,12.30
2019-05-20T01:55:48.965Z,12.30
2019-05-20T01:58:22.993Z,12.30
2019-05-20T02:00:55.559Z,12.30
2019-05-20T02:03:31.765Z,12.30
2019-05-20T02:06:04.552Z,12.30
2019-05-20T02:08:37.516Z,12.20
2019-05-20T02:11:11.297Z,12.20
2019-05-20T02:14:00.840Z,12.20
2019-05-20T02:16:33.690Z,12.10
2019-05-20T02:19:06.444Z,12.10
2019-05-20T02:21:39.153Z,12.00
2019-05-20T02:24:31.394Z,12.00
2019-05-20T02:27:04.321Z,12.00
2019-05-20T02:29:39.136Z,11.90
2019-05-20T02:32:11.963Z,11.90
2019-05-20T02:34:44.828Z,12.00
2019-05-20T02:37:21.432Z,11.90
2019-05-20T02:39:54.152Z,11.90
2019-05-20T02:42:26.825Z,11.90
2019-05-20T02:44:59.469Z,11.90
2019-05-20T02:47:33.450Z,11.90
2019-05-20T02:50:07.884Z,11.90
2019-05-20T02:52:41.032Z,11.90
2019-05-20T02:55:14.874Z,12.00
2019-05-20T02:57:47.537Z,12.00
2019-05-20T03:00:22.110Z,12.00
2019-05-20T03:02:54.685Z,12.00
2019-05-20T03:05:27.310Z,12.00
2019-05-20T03:07:59.989Z,12.10
2019-05-20T03:10:32.616Z,12.10
2019-05-20T03:13:06.421Z,12.10
2019-05-20T03:15:39.110Z,12.20
2019-05-20T03:18:11.754Z,12.20
2019-05-20T03:20:44.445Z,12.20
2019-05-20T03:23:18.348Z,12.30
2019-05-20T03:25:51.096Z,12.30
2019-05-20T03:28:26.129Z,12.30
2019-05-20T03:30:58.909Z,12.30
2019-05-20T03:33:31.665Z,12.30
2019-05-20T03:36:04.441Z,12.20
2019-05-20T03:38:37.096Z,12.20
2019-05-20T03:41:09.807Z,12.20
2019-05-20T03:43:42.515Z,12.20
2019-05-20T03:46:16.737Z,12.30
2019-05-20T03:48:49.376Z,12.30
2019-05-20T03:51:22.029Z,12.30
2019-05-20T03:53:54.695Z,12.30
2019-05-20T03:56:27.371Z,12.30
2019-05-20T03:59:00.122Z,12.40
2019-05-20T04:01:32.765Z,12.40
2019-05-20T04:04:07.236Z,12.40
2019-05-20T04:06:42.870Z,12.40
2019-05-20T04:09:15.568Z,12.40
2019-05-20T04:11:50.068Z,12.40
2019-05-20T04:14:22.811Z,12.40
2019-05-20T04:16:55.425Z,12.50
2019-05-20T04:19:28.157Z,12.50
2019-05-20T04:22:00.861Z,12.60
2019-05-20T04:24:34.660Z,12.60
2019-05-20T04:27:11.071Z,12.60
2019-05-20T04:29:43.896Z,12.60
2019-05-20T04:32:16.704Z,12.60
2019-05-20T04:34:49.521Z,12.60
2019-05-20T04:37:22.234Z,12.60
2019-05-20T04:39:54.896Z,12.70
2019-05-20T04:45:35.682Z,12.70
2019-05-20T04:48:08.560Z,12.70
2019-05-20T04:50:42.338Z,12.70
2019-05-20T04:53:16.133Z,12.80
2019-05-20T04:55:48.843Z,12.80
2019-05-20T04:58:21.936Z,12.70
2019-05-20T05:00:58.390Z,12.80
2019-05-20T05:03:31.283Z,12.80
2019-05-20T05:06:03.956Z,12.80
2019-05-20T05:08:36.952Z,12.80
2019-05-20T05:11:09.707Z,12.90
2019-05-20T05:13:43.497Z,12.80
2019-05-20T05:16:16.241Z,12.80
2019-05-20T05:18:48.898Z,12.80
2019-05-20T05:21:21.883Z,12.80
2019-05-20T05:23:59.335Z,12.80
2019-05-20T05:26:30.166Z,12.80
2019-05-20T05:29:02.824Z,12.80
2019-05-20T05:31:35.640Z,12.90
2019-05-20T05:34:08.308Z,12.80
2019-05-20T05:36:41.983Z,12.80
2019-05-20T05:39:14.686Z,12.80
2019-05-20T05:41:47.337Z,12.90
2019-05-20T05:44:21.078Z,12.80
2019-05-20T05:46:53.917Z,12.90
2019-05-20T05:49:26.657Z,13.00
2019-05-20T05:51:59.444Z,13.00
2019-05-20T05:54:32.267Z,13.00
2019-05-20T05:57:04.833Z,13.00
2019-05-20T05:59:37.586Z,13.00
2019-05-20T06:02:10.258Z,13.00
2019-05-20T06:04:43.128Z,13.00
2019-05-20T06:07:15.919Z,13.10
2019-05-20T06:09:48.695Z,13.10
2019-05-20T06:12:22.522Z,13.10
2019-05-20T06:14:55.858Z,13.00
2019-05-20T06:17:28.658Z,13.00
2019-05-20T06:20:03.709Z,13.00
2019-05-20T06:22:36.531Z,13.00
2019-05-20T06:25:09.970Z,13.10
2019-05-20T06:27:42.787Z,13.10
2019-05-20T06:30:19.422Z,13.20
2019-05-20T06:32:52.211Z,13.20
2019-05-20T06:35:24.964Z,13.20
2019-05-20T06:37:59.899Z,13.10
2019-05-20T06:40:34.439Z,13.10
2019-05-20T06:43:08.919Z,13.10
2019-05-20T06:45:41.698Z,13.20
2019-05-20T06:48:14.412Z,13.20
2019-05-20T06:50:48.267Z,13.30
2019-05-20T06:53:22.646Z,13.30
2019-05-20T06:55:55.510Z,13.30
2019-05-20T06:58:28.415Z,13.40
2019-05-20T07:01:01.321Z,13.40
2019-05-20T07:03:34.283Z,13.60
2019-05-20T07:06:06.939Z,13.60
2019-05-20T07:08:39.764Z,13.60
2019-05-20T07:11:16.150Z,13.60
2019-05-20T07:13:49.064Z,13.50
2019-05-20T07:16:22.022Z,13.50
2019-05-20T07:18:56.664Z,13.50
2019-05-20T07:21:29.912Z,13.50
2019-05-20T07:24:03.108Z,13.60
2019-05-20T07:26:35.959Z,13.60
2019-05-20T07:29:09.366Z,13.60
2019-05-20T07:31:42.219Z,13.60
2019-05-20T07:34:14.988Z,13.50
2019-05-20T07:37:02.486Z,13.50
2019-05-20T07:39:25.173Z,13.60
2019-05-20T07:41:58.385Z,13.60
2019-05-20T07:44:31.190Z,13.70
2019-05-20T07:47:04.507Z,13.60
2019-05-20T07:49:37.664Z,13.60
2019-05-20T07:52:11.894Z,13.60
2019-05-20T07:55:07.088Z,13.60
2019-05-20T07:57:42.600Z,13.60
2019-05-20T08:00:15.511Z,13.60
2019-05-20T08:02:48.595Z,13.50
2019-05-20T08:05:21.496Z,13.50
2019-05-20T08:07:55.591Z,13.60
2019-05-20T08:10:28.280Z,13.70
2019-05-20T08:13:01.120Z,13.70
2019-05-20T08:15:33.853Z,13.70
2019-05-20T08:18:09.657Z,13.60
2019-05-20T08:20:42.531Z,13.60
2019-05-20T08:23:15.254Z,13.50
2019-05-20T08:25:48.057Z,13.60
2019-05-20T08:28:20.700Z,13.60
2019-05-20T08:30:53.375Z,13.70
2019-05-20T08:33:28.038Z,13.70
2019-05-20T08:36:01.916Z,13.70
2019-05-20T08:38:36.066Z,13.70
2019-05-20T08:41:08.707Z,13.70
2019-05-20T08:43:41.565Z,13.80
2019-05-20T08:46:14.410Z,13.80
2019-05-20T08:48:47.042Z,13.80
2019-05-20T08:51:19.793Z,13.70
2019-05-20T08:53:52.614Z,13.60
2019-05-20T08:56:26.590Z,13.60
2019-05-20T08:58:59.277Z,13.60
2019-05-20T09:01:34.811Z,13.70
2019-05-20T09:04:07.655Z,13.80
2019-05-20T09:06:42.501Z,13.80
2019-05-20T09:09:17.184Z,13.90
2019-05-20T09:11:51.711Z,14.00
2019-05-20T09:14:24.511Z,14.00
2019-05-20T09:16:57.251Z,14.00
2019-05-20T09:19:30.168Z,13.90
2019-05-20T09:22:03.309Z,13.90
2019-05-20T09:24:36.077Z,13.90
2019-05-20T09:27:10.201Z,14.10
2019-05-20T09:29:42.999Z,14.10
2019-05-20T09:32:15.906Z,14.20
2019-05-20T09:34:50.385Z,14.30
2019-05-20T09:37:23.325Z,14.30
2019-05-20T09:39:57.957Z,14.30
2019-05-20T09:42:30.814Z,14.50
2019-05-20T09:45:04.378Z,14.60
2019-05-20T09:47:38.565Z,14.50
2019-05-20T09:50:11.271Z,14.30
2019-05-20T09:52:44.185Z,14.20
2019-05-20T09:55:16.962Z,14.30
2019-05-20T09:57:50.104Z,14.20
2019-05-20T10:00:23.243Z,14.00
2019-05-20T10:02:56.215Z,14.20
2019-05-20T10:05:28.964Z,14.20
2019-05-20T10:08:01.688Z,14.20
2019-05-20T10:10:34.691Z,14.10
2019-05-20T10:13:08.365Z,14.10
2019-05-20T10:15:42.794Z,14.10
2019-05-20T10:18:15.488Z,14.20
2019-05-20T10:20:48.200Z,14.20
2019-05-20T10:23:23.330Z,14.00
2019-05-20T10:25:56.186Z,14.00
2019-05-20T10:28:28.972Z,14.10
2019-05-20T10:31:01.859Z,14.20
2019-05-20T10:33:36.942Z,14.20
2019-05-20T10:36:11.058Z,14.30
2019-05-20T10:38:57.888Z,14.50
2019-05-20T10:41:18.400Z,14.70
2019-05-20T10:43:51.552Z,14.80
2019-05-20T10:46:27.107Z,14.70
2019-05-20T10:49:00.059Z,14.60
2019-05-20T10:51:34.772Z,14.60
2019-05-20T10:54:07.786Z,14.80
2019-05-20T10:56:42.346Z,14.70
2019-05-20T10:59:15.141Z,14.70
2019-05-20T11:01:47.847Z,14.60
2019-05-20T11:04:21.687Z,14.60
2019-05-20T11:06:54.910Z,14.70
2019-05-20T11:09:27.776Z,14.50
2019-05-20T11:12:00.544Z,14.60
2019-05-20T11:14:36.316Z,14.60
2019-05-20T11:17:14.747Z,14.60
2019-05-20T11:19:45.436Z,14.70
2019-05-20T11:22:19.957Z,14.70
2019-05-20T11:24:52.955Z,14.50
2019-05-20T11:27:25.666Z,14.30
2019-05-20T11:29:58.496Z,14.30
2019-05-20T11:32:31.346Z,14.20
2019-05-20T11:35:04.407Z,14.10
2019-05-20T11:37:37.292Z,14.20
2019-05-20T11:40:11.147Z,14.30
2019-05-20T11:42:44.791Z,14.20
2019-05-20T11:45:18.939Z,14.40
2019-05-20T11:47:51.671Z,14.50
2019-05-20T11:50:25.528Z,14.50
2019-05-20T11:52:58.245Z,14.50
2019-05-20T11:55:31.085Z,14.60
2019-05-20T11:58:15.168Z,14.80
2019-05-20T12:00:38.715Z,14.70
2019-05-20T12:03:12.579Z,14.70
2019-05-20T12:05:45.428Z,14.80
2019-05-20T12:08:19.371Z,14.70
2019-05-20T12:10:52.048Z,14.70
2019-05-20T12:13:24.818Z,14.70
2019-05-20T12:15:59.303Z,14.60
2019-05-20T12:18:33.334Z,14.60
2019-05-20T12:21:06.017Z,14.70
2019-05-20T12:23:38.739Z,14.80
2019-05-20T12:26:11.520Z,14.80
2019-05-20T12:28:44.340Z,14.60
2019-05-20T12:31:17.088Z,14.50
2019-05-20T12:33:49.912Z,14.50
2019-05-20T12:36:22.668Z,14.60
2019-05-20T12:38:55.514Z,14.80
2019-05-20T12:41:28.327Z,14.80
2019-05-20T12:44:12.218Z,14.90
2019-05-20T12:46:35.593Z,14.90
2019-05-20T12:49:09.565Z,15.00
2019-05-20T12:51:43.568Z,15.00
2019-05-20T12:54:16.415Z,14.80
2019-05-20T12:56:49.153Z,14.80
2019-05-20T12:59:21.767Z,14.70
2019-05-20T13:01:54.643Z,15.00
2019-05-20T13:04:27.408Z,14.90
2019-05-20T13:07:00.178Z,14.80
2019-05-20T13:09:33.930Z,14.70
2019-05-20T13:12:06.769Z,14.80
2019-05-20T13:14:39.617Z,14.70
2019-05-20T13:17:12.291Z,14.90
2019-05-20T13:19:46.144Z,14.80
2019-05-20T13:22:19.027Z,14.80
2019-05-20T13:24:51.855Z,14.80
2019-05-20T13:27:24.527Z,14.90
2019-05-20T13:29:58.333Z,15.10
2019-05-20T13:32:30.935Z,15.10
2019-05-20T13:35:03.894Z,15.10
2019-05-20T13:37:37.078Z,15.20
2019-05-20T13:40:10.128Z,15.00
2019-05-20T13:42:43.424Z,14.80
2019-05-20T13:45:16.543Z,14.70
2019-05-20T13:47:49.205Z,14.60
2019-05-20T13:50:21.937Z,14.50
2019-05-20T13:52:54.701Z,14.50
2019-05-20T13:55:28.478Z,14.50
2019-05-20T13:58:02.403Z,14.60
2019-05-20T14:00:47.444Z,14.80
2019-05-20T14:03:21.146Z,14.60
2019-05-20T14:05:53.890Z,14.70
2019-05-20T14:08:26.693Z,14.60
2019-05-20T14:11:04.382Z,14.60
2019-05-20T14:13:33.998Z,14.70
2019-05-20T14:16:06.950Z,14.70
2019-05-20T14:18:39.713Z,14.70
2019-05-20T14:21:13.705Z,14.60
2019-05-20T14:23:46.468Z,14.70
2019-05-20T14:26:19.257Z,14.60
2019-05-20T14:28:52.186Z,14.70
2019-05-20T14:31:24.997Z,14.90
2019-05-20T14:33:59.644Z,14.90
2019-05-20T14:36:40.462Z,14.80
2019-05-20T14:39:08.268Z,15.00
2019-05-20T14:41:41.361Z,14.90
2019-05-20T14:44:15.294Z,14.80
2019-05-20T14:46:48.229Z,14.80
2019-05-20T14:49:22.263Z,14.80
2019-05-20T14:51:55.213Z,14.90
2019-05-20T14:54:28.051Z,14.80
2019-05-20T14:57:00.830Z,14.80
2019-05-20T14:59:33.710Z,14.80
2019-05-20T15:02:06.440Z,14.80
2019-05-20T15:04:39.234Z,14.80
2019-05-20T15:07:28.437Z,14.80
2019-05-20T15:09:48.466Z,14.90
2019-05-20T15:12:21.270Z,14.80
2019-05-20T15:14:55.303Z,14.90
2019-05-20T15:17:28.149Z,14.80
2019-05-20T15:20:01.886Z,14.80
2019-05-20T15:22:35.696Z,14.80
2019-05-20T15:25:10.782Z,14.90
2019-05-20T15:27:43.730Z,15.00
2019-05-20T15:30:17.553Z,14.90
2019-05-20T15:32:50.294Z,15.00
2019-05-20T15:35:24.286Z,14.90
2019-05-20T15:37:57.000Z,14.80
2019-05-20T15:40:30.734Z,14.80
2019-05-20T15:43:03.478Z,14.80
2019-05-20T15:45:37.311Z,14.90
2019-05-20T15:48:10.190Z,14.90
2019-05-20T15:50:43.697Z,14.90
2019-05-20T15:53:17.626Z,14.80
2019-05-20T15:55:52.076Z,14.90
2019-05-20T15:58:24.826Z,15.00
2019-05-20T16:00:59.354Z,14.90
2019-05-20T16:03:32.254Z,14.90
2019-05-20T16:06:05.722Z,14.90
2019-05-20T16:08:38.443Z,14.90
2019-05-20T16:11:11.233Z,14.90
2019-05-20T16:13:44.232Z,14.90
2019-05-20T16:16:17.020Z,15.00
2019-05-20T16:18:49.842Z,15.00
2019-05-20T16:21:22.681Z,15.00
2019-05-20T16:23:55.511Z,15.10
2019-05-20T16:26:30.032Z,15.00
2019-05-20T16:29:03.185Z,15.00
2019-05-20T16:31:36.161Z,15.10
2019-05-20T16:34:11.103Z,15.00
2019-05-20T16:36:46.537Z,15.00
2019-05-20T16:39:20.257Z,15.00
2019-05-20T16:41:53.015Z,15.00
2019-05-20T16:44:27.080Z,15.00
2019-05-20T16:46:59.710Z,15.00
2019-05-20T16:49:33.550Z,15.10
2019-05-20T16:52:06.332Z,15.00
2019-05-20T16:54:39.393Z,14.90
2019-05-20T16:57:14.220Z,14.90
2019-05-20T16:59:46.961Z,15.00
2019-05-20T17:02:21.380Z,14.90
2019-05-20T17:04:54.165Z,14.90
2019-05-20T17:07:26.927Z,14.90
2019-05-20T17:09:59.768Z,14.80
2019-05-20T17:12:32.487Z,14.70
2019-05-20T17:15:06.021Z,14.80
2019-05-20T17:17:42.546Z,14.70
2019-05-20T17:20:27.618Z,14.70
2019-05-20T17:23:02.258Z,14.70
2019-05-20T17:25:35.323Z,14.70
2019-05-20T17:28:09.207Z,14.70
2019-05-20T17:30:46.111Z,14.70
2019-05-20T17:33:20.222Z,14.70
2019-05-20T17:35:55.098Z,14.60
2019-05-20T17:38:28.028Z,14.60
2019-05-20T17:41:00.906Z,14.70
2019-05-20T17:43:33.910Z,14.70
2019-05-20T17:46:07.010Z,14.60
2019-05-20T17:48:39.815Z,14.60
2019-05-20T17:51:14.486Z,14.60
2019-05-20T17:53:47.247Z,14.60
2019-05-20T17:56:20.301Z,14.60
2019-05-20T17:58:56.227Z,14.60
2019-05-20T18:01:28.862Z,14.60
2019-05-20T18:04:01.493Z,14.60
2019-05-20T18:06:34.195Z,14.60
2019-05-20T18:09:07.872Z,14.60
2019-05-20T18:11:40.722Z,14.60
2019-05-20T18:14:14.457Z,14.60
2019-05-20T18:16:47.259Z,14.50
2019-05-20T18:19:19.987Z,14.50
2019-05-20T18:21:52.902Z,14.50
2019-05-20T18:24:25.625Z,14.50
2019-05-20T18:27:00.266Z,14.50
2019-05-20T18:29:34.346Z,14.50
2019-05-20T18:32:07.123Z,14.50
2019-05-20T18:34:40.986Z,14.50
2019-05-20T18:37:33.184Z,14.40
2019-05-20T18:40:13.943Z,14.50
2019-05-20T18:42:40.818Z,14.50
2019-05-20T18:45:13.730Z,14.40
2019-05-20T18:47:46.630Z,14.40
2019-05-20T18:50:19.383Z,14.40
2019-05-20T18:52:52.135Z,14.40
2019-05-20T18:55:25.984Z,14.40
2019-05-20T18:57:59.879Z,14.40
2019-05-20T19:00:32.568Z,14.40
2019-05-20T19:03:05.412Z,14.40
2019-05-20T19:05:40.047Z,14.40
2019-05-20T19:08:13.135Z,14.30
2019-05-20T19:10:47.823Z,14.40
2019-05-20T19:13:20.649Z,14.30
2019-05-20T19:15:53.324Z,14.30
2019-05-20T19:18:27.227Z,14.30
2019-05-20T19:21:00.059Z,14.30
2019-05-20T19:23:32.977Z,14.30
2019-05-20T19:26:05.897Z,14.30
2019-05-20T19:28:38.768Z,14.30
2019-05-20T19:31:11.725Z,14.30
2019-05-20T19:33:44.598Z,14.30
2019-05-20T19:36:17.429Z,14.30
2019-05-20T19:38:51.578Z,14.30
2019-05-20T19:41:24.345Z,14.20
2019-05-20T19:43:57.320Z,14.30
2019-05-20T19:46:30.203Z,14.20
2019-05-20T19:49:03.028Z,14.20
2019-05-20T19:51:36.095Z,14.20
2019-05-20T19:54:08.989Z,14.20
2019-05-20T19:56:41.943Z,14.20
2019-05-20T19:59:14.740Z,14.10
2019-05-20T20:01:48.958Z,14.20
2019-05-20T20:04:23.435Z,14.20
2019-05-20T20:06:57.501Z,14.20
2019-05-20T20:09:32.060Z,14.10
2019-05-20T20:12:04.903Z,14.10
2019-05-20T20:14:37.508Z,14.10
2019-05-20T20:17:11.722Z,14.10
2019-05-20T20:19:44.387Z,14.10
2019-05-20T20:22:17.260Z,14.10
2019-05-20T20:24:50.985Z,14.10
2019-05-20T20:27:23.657Z,14.10
2019-05-20T20:29:58.340Z,14.10
2019-05-20T20:32:37.927Z,14.10
2019-05-20T20:35:06.627Z,14.10
2019-05-20T20:37:39.486Z,14.10
2019-05-20T20:40:12.684Z,14.10
2019-05-20T20:42:45.418Z,14.10
2019-05-20T20:45:18.242Z,14.10
2019-05-20T20:47:51.979Z,14.10
2019-05-20T20:50:24.756Z,14.10
2019-05-20T20:52:57.381Z,14.10
2019-05-20T20:55:30.118Z,14.10
2019-05-20T20:58:02.834Z,14.10
2019-05-20T21:00:35.572Z,14.10
2019-05-20T21:03:08.315Z,14.00
2019-05-20T21:05:41.154Z,14.10
2019-05-20T21:08:15.717Z,14.10
2019-05-20T21:10:49.713Z,14.10
2019-05-20T21:13:22.450Z,14.10
2019-05-20T21:15:58.467Z,14.10
2019-05-20T21:18:29.825Z,14.10
2019-05-20T21:21:02.618Z,14.10
2019-05-20T21:23:38.074Z,14.10
2019-05-20T21:26:10.901Z,14.00
2019-05-20T21:28:43.625Z,14.00
2019-05-20T21:31:16.238Z,14.00
2019-05-20T21:33:51.690Z,13.90
2019-05-20T21:36:24.419Z,13.90
2019-05-20T21:38:58.267Z,13.90
2019-05-20T21:41:32.940Z,13.90
2019-05-20T21:44:05.898Z,13.80
2019-05-20T21:47:09.396Z,13.80
2019-05-20T21:49:42.022Z,13.80
2019-05-20T21:52:14.825Z,13.70
2019-05-20T21:54:47.535Z,13.70
2019-05-20T21:57:24.856Z,13.60
2019-05-20T21:59:57.685Z,13.50
2019-05-20T22:02:33.159Z,13.50
2019-05-20T22:05:06.229Z,13.50
2019-05-20T22:07:39.024Z,13.40
2019-05-20T22:10:13.565Z,13.30
2019-05-20T22:12:46.411Z,13.30
2019-05-20T22:15:20.350Z,13.30
2019-05-20T22:17:52.941Z,13.30
2019-05-20T22:20:25.631Z,13.20
2019-05-20T22:23:16.477Z,13.20
2019-05-20T22:25:50.120Z,13.20
2019-05-20T22:28:22.789Z,13.20
2019-05-20T22:30:55.520Z,13.20
2019-05-20T22:33:40.487Z,13.10
2019-05-20T22:36:03.886Z,13.10
2019-05-20T22:38:37.719Z,13.10
2019-05-20T22:41:10.349Z,13.10
2019-05-20T22:43:43.144Z,13.10
2019-05-20T22:46:15.884Z,13.00
2019-05-20T22:48:48.574Z,13.00
2019-05-20T22:51:21.426Z,13.00
2019-05-20T22:53:54.136Z,13.00
2019-05-20T22:56:26.940Z,13.00
2019-05-20T22:58:59.486Z,13.00
2019-05-20T23:01:32.229Z,13.00
2019-05-20T23:04:06.106Z,13.00
2019-05-20T23:06:38.766Z,13.00
2019-05-20T23:09:14.790Z,13.00
2019-05-20T23:11:45.993Z,13.00
2019-05-20T23:14:18.655Z,13.00
2019-05-20T23:16:51.637Z,13.00
2019-05-20T23:19:24.566Z,13.00
2019-05-20T23:21:58.450Z,13.00
2019-05-20T23:24:31.016Z,12.90
2019-05-20T23:27:05.566Z,12.90
2019-05-20T23:29:38.202Z,12.90
2019-05-20T23:32:11.942Z,12.90
2019-05-20T23:34:44.765Z,12.90
2019-05-20T23:37:17.366Z,12.90
2019-05-20T23:39:50.451Z,12.80
2019-05-20T23:42:23.285Z,12.80
2019-05-20T23:44:55.881Z,12.80
2019-05-20T23:47:28.677Z,12.80
2019-05-20T23:50:02.415Z,12.80
2019-05-20T23:52:35.208Z,12.80
2019-05-20T23:55:08.585Z,12.80
2019-05-20T23:57:41.252Z,12.80
